KMOB

Mobile Regional Airport

Mobile, Alabama, USA
METAR KMOB 160556Z AUTO 14003KT 10SM CLR 27/24 A3006 RMK AO2 SLP177 T02670239 10300 20267 403330233 55001
Observed Flight Rules
Aug-16 @ 05:56 UTC (21 minutes ago) Visual Flight Rules
Wind Visibility Clouds
140° at 3 knots 10 miles
  • Clear skies
Temperatures Readings
Current 27°C / 81°F
Dewpoint 24°C / 75°F
Humidity 84%
Altimeter 30.06" Hg
Pressure 1017.7 hPa
Elevation 63
METAR KMOB 160556Z AUTO 14003KT 10SM CLR 27/24 A3006 RMK AO2 SLP177 T02670239 10300 20267 403330233 55001
Observed Flight Rules
Aug-16 @ 05:56 UTC
(21 minutes ago)
VFR
Wind Visibility
140° at 3 knots 10 miles
Clouds
  • Clear skies
Temperature Dewpoint
27°C / 81°F 24°C / 75°F
Humidity Altimeter Pressure
84% 30.06" Hg 1017.7 hPa